createdAt,value
2018-11-22T12:17:51.326Z,56.93
2018-11-22T12:20:19.626Z,57.47
2018-11-22T12:22:48.940Z,62.33
2018-11-22T12:25:18.209Z,52.23
2018-11-22T12:27:47.371Z,57.47
2018-11-22T12:30:19.175Z,53.40
2018-11-22T12:32:51.624Z,51.67
2018-11-22T12:35:25.276Z,55.30
2018-11-22T12:37:58.836Z,60.47
2018-11-22T12:40:26.799Z,50.73
2018-11-22T12:42:54.711Z,51.27
2018-11-22T12:45:22.633Z,54.87
2018-11-22T12:47:50.543Z,63.43
2018-11-22T12:50:18.528Z,56.50
2018-11-22T12:52:46.406Z,52.83
2018-11-22T12:55:14.403Z,50.70
2018-11-22T12:57:42.394Z,48.10
2018-11-22T13:00:12.270Z,51.27
2018-11-22T13:02:40.550Z,56.17
2018-11-22T13:05:09.811Z,57.53
2018-11-22T13:07:37.734Z,53.90
2018-11-22T13:10:07.623Z,52.80
2018-11-22T13:12:35.513Z,54.13
2018-11-22T13:15:03.495Z,56.47
2018-11-22T13:17:31.447Z,53.97
2018-11-22T13:19:59.358Z,53.57
2018-11-22T13:22:27.271Z,53.20
2018-11-22T13:24:55.228Z,57.53
2018-11-22T13:27:23.155Z,50.53
2018-11-22T13:29:51.068Z,60.90
2018-11-22T13:32:21.527Z,52.00
2018-11-22T13:34:47.058Z,55.47
2018-11-22T13:37:14.956Z,53.07
2018-11-22T13:39:42.927Z,54.63
2018-11-22T13:42:10.871Z,58.57
2018-11-22T13:44:38.806Z,52.93
2018-11-22T13:47:06.746Z,52.33
2018-11-22T13:49:34.674Z,54.97
2018-11-22T13:52:02.670Z,54.23
2018-11-22T13:54:30.580Z,52.37
2018-11-22T13:56:58.549Z,61.47
2018-11-22T13:59:26.474Z,55.97
2018-11-22T14:01:54.440Z,51.03
2018-11-22T14:04:22.366Z,57.37
2018-11-22T14:06:50.250Z,60.10
2018-11-22T14:09:18.147Z,58.60
2018-11-22T14:11:46.201Z,57.77
2018-11-22T14:14:14.117Z,52.97
2018-11-22T14:16:42.016Z,60.17
2018-11-22T14:19:09.972Z,59.80
2018-11-22T14:21:37.893Z,56.37
2018-11-22T14:24:05.861Z,61.63
2018-11-22T14:26:33.759Z,60.20
2018-11-22T14:29:01.667Z,59.83
2018-11-22T14:31:29.587Z,62.20
2018-11-22T14:33:57.524Z,57.43
2018-11-22T14:36:25.409Z,58.87
2018-11-22T14:38:53.439Z,50.50
2018-11-22T14:41:21.332Z,58.10
2018-11-22T14:43:49.420Z,58.47
2018-11-22T14:46:17.391Z,57.57
2018-11-22T14:48:45.333Z,61.30
2018-11-22T14:51:47.443Z,59.27
2018-11-22T14:54:18.641Z,60.70
2018-11-22T14:56:46.579Z,61.17
2018-11-22T14:59:14.507Z,56.77
2018-11-22T15:01:42.422Z,61.00
2018-11-22T15:04:10.325Z,57.80
2018-11-22T15:06:38.279Z,64.93
2018-11-22T15:09:07.850Z,63.30
2018-11-22T15:11:35.811Z,58.13
2018-11-22T15:14:03.781Z,61.23
2018-11-22T15:16:31.631Z,63.57
2018-11-22T15:18:59.584Z,62.93
2018-11-22T15:21:27.855Z,59.30
2018-11-22T15:23:55.907Z,65.67
2018-11-22T15:26:23.808Z,67.90
2018-11-22T15:28:51.721Z,68.93
2018-11-22T15:31:19.668Z,64.03
2018-11-22T15:33:47.559Z,66.37
2018-11-22T15:36:15.542Z,65.40
2018-11-22T15:38:43.478Z,65.33
2018-11-22T15:41:11.442Z,59.30
2018-11-22T15:43:39.337Z,64.60
2018-11-22T15:46:07.359Z,69.87
2018-11-22T15:48:35.261Z,70.40
2018-11-22T15:51:03.271Z,66.80
2018-11-22T15:53:31.172Z,71.60
2018-11-22T15:55:59.121Z,67.10
2018-11-22T15:58:27.061Z,75.70
2018-11-22T16:00:54.968Z,82.90
2018-11-22T16:03:22.893Z,77.53
2018-11-22T16:05:50.809Z,69.63
2018-11-22T16:08:18.879Z,56.20
2018-11-22T16:10:46.823Z,75.70
2018-11-22T16:13:15.648Z,71.87
2018-11-22T16:15:46.503Z,77.40
2018-11-22T16:18:14.391Z,81.53
2018-11-22T16:20:42.323Z,76.73
2018-11-22T16:23:10.243Z,73.47
2018-11-22T16:25:38.164Z,77.80
2018-11-22T16:28:06.401Z,76.93
2018-11-22T16:30:34.690Z,82.27
2018-11-22T16:33:02.688Z,82.30
2018-11-22T16:35:33.464Z,76.40
2018-11-22T16:37:59.311Z,86.37
2018-11-22T16:40:28.007Z,82.10
2018-11-22T16:42:57.125Z,67.53
2018-11-22T16:45:27.442Z,73.30
2018-11-22T16:47:55.809Z,75.93
2018-11-22T16:50:25.608Z,79.87
2018-11-22T16:52:53.885Z,80.33
2018-11-22T16:55:22.532Z,82.07
2018-11-22T16:57:51.202Z,76.10
2018-11-22T17:00:25.273Z,83.23
2018-11-22T17:02:54.266Z,77.53
2018-11-22T17:05:22.450Z,88.20
2018-11-22T17:07:50.927Z,81.20
2018-11-22T17:10:22.161Z,83.37
2018-11-22T17:12:51.718Z,75.13
2018-11-22T17:15:21.062Z,83.70
2018-11-22T17:17:49.604Z,68.67
2018-11-22T17:20:18.377Z,88.57
2018-11-22T17:22:47.363Z,77.33
2018-11-22T17:25:16.956Z,83.00
2018-11-22T17:27:45.977Z,83.00
2018-11-22T17:30:21.407Z,75.80
2018-11-22T17:32:49.547Z,74.03
2018-11-22T17:35:18.957Z,74.07
2018-11-22T17:37:47.159Z,74.40
2018-11-22T17:40:19.572Z,69.37
2018-11-22T17:42:47.894Z,84.47
2018-11-22T17:45:21.302Z,81.07
2018-11-22T17:47:49.680Z,81.47
2018-11-22T17:50:17.645Z,81.83
2018-11-22T17:52:45.702Z,85.67
2018-11-22T17:55:16.093Z,89.77
2018-11-22T17:57:43.992Z,73.43
2018-11-22T18:00:17.067Z,72.60
2018-11-22T18:02:46.593Z,80.93
2018-11-22T18:05:14.544Z,73.50
2018-11-22T18:07:42.455Z,78.73
2018-11-22T18:10:12.758Z,86.33
2018-11-22T18:12:41.978Z,83.10
2018-11-22T18:15:11.565Z,85.17
2018-11-22T18:17:39.497Z,82.80
2018-11-22T18:20:11.892Z,88.00
2018-11-22T18:22:39.817Z,81.50
2018-11-22T18:25:10.387Z,87.60
2018-11-22T18:27:38.507Z,84.63
2018-11-22T18:30:09.466Z,86.50
2018-11-22T18:32:37.542Z,84.53
2018-11-22T18:35:07.053Z,80.83
2018-11-22T18:37:34.981Z,89.40
2018-11-22T18:40:03.037Z,85.80
2018-11-22T18:42:30.966Z,79.27
2018-11-22T18:44:58.950Z,86.90
2018-11-22T18:47:26.920Z,81.43
2018-11-22T18:49:54.856Z,88.73
2018-11-22T18:52:22.795Z,89.57
2018-11-22T18:54:50.740Z,76.17
2018-11-22T18:57:18.970Z,87.87
2018-11-22T18:59:46.911Z,87.37
2018-11-22T19:02:14.853Z,77.40
2018-11-22T19:04:42.829Z,82.77
2018-11-22T19:07:10.758Z,74.27
2018-11-22T19:09:38.695Z,70.77
2018-11-22T19:12:06.590Z,72.60
2018-11-22T19:14:34.549Z,75.03
2018-11-22T19:17:02.539Z,81.80
2018-11-22T19:19:30.509Z,78.07
2018-11-22T19:21:58.509Z,74.50
2018-11-22T19:24:26.412Z,77.63
2018-11-22T19:26:54.343Z,73.20
2018-11-22T19:29:22.275Z,72.70
2018-11-22T19:31:50.354Z,75.10
2018-11-22T19:34:18.282Z,76.97
2018-11-22T19:36:46.394Z,76.67
2018-11-22T19:39:14.334Z,67.97
2018-11-22T19:41:42.282Z,76.77
2018-11-22T19:44:10.219Z,76.63
2018-11-22T19:46:38.269Z,73.47
2018-11-22T19:49:06.348Z,76.70
2018-11-22T19:51:34.259Z,75.50
2018-11-22T19:54:02.187Z,90.07
2018-11-22T19:56:30.167Z,79.20
2018-11-22T19:58:58.270Z,74.27
2018-11-22T20:01:26.183Z,78.03
2018-11-22T20:03:54.267Z,79.63
2018-11-22T20:06:22.280Z,68.33
2018-11-22T20:08:50.336Z,69.17
2018-11-22T20:11:18.294Z,76.27
2018-11-22T20:13:46.367Z,74.00
2018-11-22T20:16:14.326Z,76.03
2018-11-22T20:18:42.326Z,74.67
2018-11-22T20:21:10.262Z,77.97
2018-11-22T20:23:38.271Z,74.30
2018-11-22T20:26:06.240Z,81.10
2018-11-22T20:28:34.128Z,69.87
2018-11-22T20:31:02.049Z,72.77
2018-11-22T20:33:29.997Z,68.10
2018-11-22T20:35:58.023Z,73.93
2018-11-22T20:38:25.902Z,72.83
2018-11-22T20:40:57.403Z,75.17
2018-11-22T20:43:21.830Z,73.93
2018-11-22T20:45:49.854Z,67.00
2018-11-22T20:48:17.763Z,71.17
2018-11-22T20:50:45.698Z,76.57
2018-11-22T20:53:13.647Z,73.30
2018-11-22T20:55:41.602Z,71.67
2018-11-22T20:58:09.493Z,62.13
2018-11-22T21:00:39.941Z,66.07
2018-11-22T21:03:07.837Z,66.27
2018-11-22T21:05:35.789Z,59.77
2018-11-22T21:08:03.728Z,63.50
2018-11-22T21:10:32.483Z,67.73
2018-11-22T21:13:00.454Z,69.97
2018-11-22T21:15:29.741Z,73.37
2018-11-22T21:17:59.307Z,66.23
2018-11-22T21:20:28.978Z,70.27
2018-11-22T21:22:56.940Z,66.17
2018-11-22T21:25:24.953Z,65.40
2018-11-22T21:27:52.996Z,65.43
2018-11-22T21:30:23.709Z,58.50
2018-11-22T21:32:51.932Z,64.43
2018-11-22T21:35:20.285Z,66.33
2018-11-22T21:37:48.851Z,71.03
2018-11-22T21:40:17.780Z,67.17
2018-11-22T21:42:45.782Z,71.27
2018-11-22T21:45:15.994Z,65.10
2018-11-22T21:47:43.995Z,67.00
2018-11-22T21:50:13.194Z,66.40
2018-11-22T21:52:41.203Z,61.37
2018-11-22T21:55:11.866Z,68.60
2018-11-22T21:57:40.709Z,65.37
2018-11-22T22:00:21.033Z,74.47
2018-11-22T22:02:52.630Z,66.60
2018-11-22T22:05:18.719Z,69.23
2018-11-22T22:07:46.686Z,63.00
2018-11-22T22:10:14.624Z,69.40
2018-11-22T22:12:42.858Z,71.27
2018-11-22T22:15:13.175Z,60.67
2018-11-22T22:17:41.872Z,67.87
2018-11-22T22:20:12.617Z,64.90
2018-11-22T22:22:40.977Z,68.73
2018-11-22T22:25:10.974Z,64.70
2018-11-22T22:27:39.635Z,69.43
2018-11-22T22:30:10.331Z,70.47
2018-11-22T22:32:38.293Z,69.37
2018-11-22T22:35:06.791Z,60.77
2018-11-22T22:37:34.903Z,65.70
2018-11-22T22:40:03.784Z,69.13
2018-11-22T22:42:30.969Z,64.13
2018-11-22T22:44:58.863Z,60.67
2018-11-22T22:47:26.848Z,63.00
2018-11-22T22:49:54.764Z,67.07
2018-11-22T22:52:23.116Z,50.63
2018-11-22T22:54:51.059Z,69.80
2018-11-22T22:57:19.011Z,57.63
2018-11-22T22:59:46.928Z,62.07
2018-11-22T23:02:14.896Z,68.13
2018-11-22T23:04:42.828Z,73.53
2018-11-22T23:07:10.775Z,66.03
2018-11-22T23:09:38.750Z,62.83
2018-11-22T23:12:06.697Z,69.10
2018-11-22T23:14:34.685Z,60.30
2018-11-22T23:17:02.615Z,65.47
2018-11-22T23:19:30.498Z,65.93
2018-11-22T23:21:58.425Z,68.87
2018-11-22T23:24:26.366Z,65.10
2018-11-22T23:26:54.335Z,65.80
2018-11-22T23:29:22.234Z,65.97
2018-11-22T23:31:50.378Z,63.00
2018-11-22T23:34:18.285Z,62.83
2018-11-22T23:36:46.247Z,63.17
2018-11-22T23:39:14.191Z,64.27
2018-11-22T23:41:42.098Z,66.13
2018-11-22T23:44:09.995Z,62.30
2018-11-22T23:46:37.899Z,68.97
2018-11-22T23:49:05.844Z,60.17
2018-11-22T23:51:33.795Z,60.87
2018-11-22T23:54:01.723Z,55.67
2018-11-22T23:56:29.762Z,61.73
2018-11-22T23:58:57.663Z,58.53
